Calafate, Argentina
Current Conditions -  °F | °C
As of 10:00 PM on Sunday 23 Nov 2014 (Local Time) from SAWG Reporting Station
Clear Clear  
Wind Chill: 40°   Ceiling: Unl
Heat Index: 48°   Visibility: 6mi
Dew Point: 28°   Wind: 28mph
Humidity: 46%   Direction: 250°WSW
Pressure: 29.38"   Gusts: 39mph
Location:  50.33°S, 72.27°W
Report Text: SAWG 240100Z 25024G34KT CAVOK 09/M02 Q0995
Loading
Personal Weather Stations






























Interactive Weather Map New forecast layout! Learn more

10-Day Weather Forecast

Advertisements
Track Severe Weather on mobile